createdAt,value
2023-01-02T00:02:10.875Z,9.71
2023-01-02T00:04:37.554Z,9.69
2023-01-02T00:07:04.167Z,9.64
2023-01-02T00:09:30.807Z,9.60
2023-01-02T00:11:57.471Z,9.56
2023-01-02T00:14:24.247Z,9.54
2023-01-02T00:16:51.304Z,9.56
2023-01-02T00:19:17.989Z,9.57
2023-01-02T00:21:44.632Z,9.58
2023-01-02T00:24:11.399Z,9.58
2023-01-02T00:26:38.060Z,9.55
2023-01-02T00:29:04.741Z,9.50
2023-01-02T00:31:31.462Z,9.46
2023-01-02T00:33:58.160Z,9.41
2023-01-02T00:36:26.560Z,9.37
2023-01-02T00:38:56.638Z,9.37
2023-01-02T00:41:23.439Z,9.38
2023-01-02T00:43:50.113Z,9.38
2023-01-02T00:46:18.826Z,9.35
2023-01-02T00:48:45.647Z,9.33
2023-01-02T00:54:16.221Z,9.26
2023-01-02T00:56:42.965Z,9.21
2023-01-02T00:59:09.704Z,9.22
2023-01-02T01:01:36.539Z,9.25
2023-01-02T01:04:03.599Z,9.26
2023-01-02T01:06:30.593Z,9.25
2023-01-02T01:08:57.281Z,9.23
2023-01-02T01:11:23.990Z,9.19
2023-01-02T01:13:51.719Z,9.15
2023-01-02T01:16:19.251Z,9.12
2023-01-02T01:18:47.514Z,9.12
2023-01-02T01:21:18.755Z,9.13
2023-01-02T01:23:49.797Z,9.12
2023-01-02T01:26:16.655Z,9.10
2023-01-02T01:28:43.347Z,9.08
2023-01-02T01:31:12.670Z,9.04
2023-01-02T01:33:39.929Z,8.99
2023-01-02T01:36:11.556Z,8.97
2023-01-02T01:38:38.331Z,8.98
2023-01-02T01:41:05.339Z,8.99
2023-01-02T01:43:51.275Z,8.99
2023-01-02T01:46:40.269Z,8.99
2023-01-02T01:49:12.962Z,8.98
2023-01-02T01:52:01.800Z,8.95
2023-01-02T01:54:31.243Z,8.94
2023-01-02T01:57:00.665Z,8.95
2023-01-02T01:59:27.349Z,8.97
2023-01-02T02:01:54.186Z,8.99
2023-01-02T02:04:21.212Z,8.99
2023-01-02T02:06:49.181Z,8.96
2023-01-02T02:09:18.008Z,8.90
2023-01-02T02:11:44.876Z,8.84
2023-01-02T02:14:11.635Z,8.81
2023-01-02T02:16:45.056Z,8.81
2023-01-02T02:19:33.664Z,8.81
2023-01-02T02:22:21.722Z,8.80
2023-01-02T02:25:06.898Z,8.78
2023-01-02T02:28:19.097Z,8.74
2023-01-02T02:31:02.253Z,8.67
2023-01-02T02:33:38.096Z,8.65
2023-01-02T02:36:29.293Z,8.66
2023-01-02T02:39:17.623Z,8.68
2023-01-02T02:42:07.231Z,8.67
2023-01-02T02:44:56.689Z,8.65
2023-01-02T02:47:40.545Z,8.62
2023-01-02T02:50:21.214Z,8.57
2023-01-02T02:52:58.891Z,8.55
2023-01-02T02:55:45.104Z,8.57
2023-01-02T02:58:12.893Z,8.58
2023-01-02T03:00:39.589Z,8.58
2023-01-02T03:03:20.516Z,8.57
2023-01-02T03:06:16.560Z,8.54
2023-01-02T03:08:52.554Z,8.47
2023-01-02T03:11:19.287Z,8.45
2023-01-02T03:14:03.392Z,8.47
2023-01-02T03:16:33.637Z,8.49
2023-01-02T03:19:42.394Z,8.50
2023-01-02T03:22:12.825Z,8.50
2023-01-02T03:24:39.551Z,8.48
2023-01-02T03:27:09.629Z,8.46
2023-01-02T03:29:42.586Z,8.42
2023-01-02T03:32:13.177Z,8.41
2023-01-02T03:34:40.634Z,8.40
2023-01-02T03:37:10.820Z,8.41
2023-01-02T03:39:41.326Z,8.43
2023-01-02T03:42:13.241Z,8.42
2023-01-02T03:44:57.419Z,8.41
2023-01-02T03:47:28.650Z,8.38
2023-01-02T03:49:57.813Z,8.34
2023-01-02T03:52:26.271Z,8.32
2023-01-02T03:54:54.552Z,8.35
2023-01-02T03:57:57.535Z,8.38
2023-01-02T04:00:25.620Z,8.40
2023-01-02T04:02:59.055Z,8.40
2023-01-02T04:05:59.764Z,8.38
2023-01-02T04:08:29.486Z,8.36
2023-01-02T04:10:58.603Z,8.36
2023-01-02T04:13:29.299Z,8.39
2023-01-02T04:15:56.101Z,8.44
2023-01-02T04:18:25.524Z,8.48
2023-01-02T04:20:54.674Z,8.49
2023-01-02T04:23:31.478Z,8.48
2023-01-02T04:26:10.243Z,8.45
2023-01-02T04:28:37.105Z,8.41
2023-01-02T04:31:09.863Z,8.38
2023-01-02T04:33:43.766Z,8.40
2023-01-02T04:36:11.281Z,8.43
2023-01-02T04:38:38.019Z,8.44
2023-01-02T04:41:04.979Z,8.43
2023-01-02T04:43:31.777Z,8.38
2023-01-02T04:45:58.507Z,8.35
2023-01-02T04:48:25.205Z,8.28
2023-01-02T04:50:54.187Z,8.25
2023-01-02T04:53:21.283Z,8.23
2023-01-02T04:55:48.091Z,8.22
2023-01-02T04:58:15.290Z,8.20
2023-01-02T05:00:42.032Z,8.16
2023-01-02T05:03:08.786Z,8.13
2023-01-02T05:05:35.668Z,8.07
2023-01-02T05:08:02.312Z,8.02
2023-01-02T05:10:28.991Z,7.95
2023-01-02T05:12:58.998Z,7.90
2023-01-02T05:15:25.897Z,7.87
2023-01-02T05:17:52.532Z,7.84
2023-01-02T05:20:19.255Z,7.82
2023-01-02T05:23:04.868Z,7.79
2023-01-02T05:25:32.491Z,7.75
2023-01-02T05:27:59.142Z,7.67
2023-01-02T05:30:25.807Z,7.61
2023-01-02T05:32:53.624Z,7.58
2023-01-02T05:35:20.522Z,7.58
2023-01-02T05:37:47.336Z,7.58
2023-01-02T05:40:14.139Z,7.57
2023-01-02T05:42:40.862Z,7.54
2023-01-02T05:45:08.348Z,7.51
2023-01-02T05:47:35.086Z,7.47
2023-01-02T05:50:03.103Z,7.42
2023-01-02T05:52:29.844Z,7.41
2023-01-02T05:54:56.591Z,7.42
2023-01-02T05:57:23.219Z,7.43
2023-01-02T05:59:49.858Z,7.44
2023-01-02T06:02:16.803Z,7.43
2023-01-02T06:04:43.685Z,7.40
2023-01-02T06:07:10.324Z,7.35
2023-01-02T06:09:36.967Z,7.29
2023-01-02T06:12:04.075Z,7.21
2023-01-02T06:14:30.718Z,7.14
2023-01-02T06:16:58.346Z,7.13
2023-01-02T06:19:25.040Z,7.13
2023-01-02T06:21:51.686Z,7.15
2023-01-02T06:24:18.525Z,7.15
2023-01-02T06:26:45.257Z,7.14
2023-01-02T06:29:11.964Z,7.11
2023-01-02T06:31:40.047Z,7.07
2023-01-02T06:34:07.404Z,7.04
2023-01-02T06:36:34.359Z,7.04
2023-01-02T06:39:01.128Z,7.04
2023-01-02T06:41:27.866Z,7.02
2023-01-02T06:43:54.606Z,6.98
2023-01-02T06:46:22.675Z,6.91
2023-01-02T06:48:49.481Z,6.82
2023-01-02T06:51:18.203Z,6.71
2023-01-02T06:53:45.264Z,6.63
2023-01-02T06:56:13.010Z,6.58
2023-01-02T06:58:39.821Z,6.58
2023-01-02T07:01:14.688Z,6.64
2023-01-02T07:03:41.520Z,6.71
2023-01-02T07:06:10.577Z,6.78
2023-01-02T07:08:37.407Z,6.85
2023-01-02T07:11:08.525Z,6.93
2023-01-02T07:13:35.284Z,6.99
2023-01-02T07:16:04.001Z,7.01
2023-01-02T07:18:30.954Z,7.06
2023-01-02T07:20:58.683Z,7.13
2023-01-02T07:23:25.453Z,7.21
2023-01-02T07:25:56.408Z,7.28
2023-01-02T07:28:23.203Z,7.35
2023-01-02T07:30:50.102Z,7.43
2023-01-02T07:33:16.819Z,7.49
2023-01-02T07:35:44.293Z,7.54
2023-01-02T07:38:11.036Z,7.60
2023-01-02T07:40:37.678Z,7.69
2023-01-02T07:43:04.368Z,7.81
2023-01-02T07:45:33.142Z,7.96
2023-01-02T07:47:59.941Z,8.13
2023-01-02T07:50:26.743Z,8.30
2023-01-02T07:52:53.467Z,8.50
2023-01-02T07:55:20.604Z,8.72
2023-01-02T07:57:48.458Z,8.97
2023-01-02T08:00:18.458Z,9.19
2023-01-02T08:02:45.463Z,9.35
2023-01-02T08:05:12.191Z,9.46
2023-01-02T08:07:44.603Z,9.56
2023-01-02T08:10:12.460Z,9.69
2023-01-02T08:12:39.534Z,9.82
2023-01-02T08:15:06.782Z,9.94
2023-01-02T08:17:33.529Z,10.03
2023-01-02T08:20:06.756Z,10.08
2023-01-02T08:22:34.191Z,10.12
2023-01-02T08:25:01.486Z,10.17
2023-01-02T08:27:28.160Z,10.23
2023-01-02T08:29:54.927Z,10.27
2023-01-02T08:32:21.777Z,10.32
2023-01-02T08:34:48.469Z,10.35
2023-01-02T08:37:15.214Z,10.43
2023-01-02T08:39:42.009Z,10.50
2023-01-02T08:42:09.011Z,10.59
2023-01-02T08:44:38.077Z,10.66
2023-01-02T08:47:05.580Z,10.70
2023-01-02T08:49:32.356Z,10.72
2023-01-02T08:51:59.043Z,10.72
2023-01-02T08:54:25.711Z,10.69
2023-01-02T08:56:52.434Z,10.66
2023-01-02T08:59:19.354Z,10.64
2023-01-02T09:01:46.090Z,10.69
2023-01-02T09:04:13.578Z,10.79
2023-01-02T09:06:40.813Z,10.87
2023-01-02T09:09:11.893Z,10.95
2023-01-02T09:11:52.724Z,11.02
2023-01-02T09:14:20.578Z,11.08
2023-01-02T09:16:47.818Z,11.14
2023-01-02T09:19:14.577Z,11.19
2023-01-02T09:21:41.519Z,11.25
2023-01-02T09:24:08.446Z,11.29
2023-01-02T09:26:35.421Z,11.34
2023-01-02T09:29:02.089Z,11.39
2023-01-02T09:31:28.781Z,11.47
2023-01-02T09:33:55.824Z,11.60
2023-01-02T09:36:22.668Z,11.67
2023-01-02T09:38:57.026Z,11.72
2023-01-02T09:41:28.121Z,11.74
2023-01-02T09:43:59.456Z,11.77
2023-01-02T09:46:48.511Z,11.77
2023-01-02T09:49:20.507Z,11.77
2023-01-02T09:51:47.217Z,11.73
2023-01-02T09:54:19.827Z,11.68
2023-01-02T09:56:48.201Z,11.67
2023-01-02T09:59:18.648Z,11.68
2023-01-02T10:01:59.615Z,11.73
2023-01-02T10:04:40.107Z,11.81
2023-01-02T10:07:13.729Z,11.88
2023-01-02T10:09:49.653Z,11.95
2023-01-02T10:12:26.411Z,11.99
2023-01-02T10:14:56.043Z,11.99
2023-01-02T10:17:22.983Z,12.01
2023-01-02T10:20:03.536Z,12.05
2023-01-02T10:22:37.914Z,12.10
2023-01-02T10:25:27.004Z,12.11
2023-01-02T10:27:55.003Z,12.13
2023-01-02T10:30:24.071Z,12.14
2023-01-02T10:33:21.030Z,12.16
2023-01-02T10:35:48.652Z,12.29
2023-01-02T10:38:16.288Z,12.38
2023-01-02T10:40:44.898Z,12.47
2023-01-02T10:43:11.622Z,12.53
2023-01-02T10:45:38.326Z,12.55
2023-01-02T10:48:05.277Z,12.57
2023-01-02T10:50:52.957Z,12.58
2023-01-02T10:53:33.329Z,12.60
2023-01-02T10:56:04.568Z,12.60
2023-01-02T10:58:33.155Z,12.61
2023-01-02T11:01:07.994Z,12.63
2023-01-02T11:03:34.798Z,12.64
2023-01-02T11:06:26.910Z,12.66
2023-01-02T11:09:11.615Z,12.65
2023-01-02T11:11:38.708Z,12.66
2023-01-02T11:14:07.227Z,12.63
2023-01-02T11:16:37.504Z,12.63
2023-01-02T11:19:07.426Z,12.66
2023-01-02T11:21:40.636Z,12.72
2023-01-02T11:24:15.917Z,12.82
2023-01-02T11:26:43.931Z,12.91
2023-01-02T11:29:16.449Z,12.98
2023-01-02T11:31:51.035Z,13.03
2023-01-02T11:34:22.408Z,13.06
2023-01-02T11:37:11.149Z,13.09
2023-01-02T11:39:37.829Z,13.10
2023-01-02T11:42:38.775Z,13.10
2023-01-02T11:45:14.053Z,13.09
2023-01-02T11:47:48.954Z,13.06
2023-01-02T11:50:21.755Z,13.05
2023-01-02T11:52:56.044Z,13.01
2023-01-02T11:55:25.870Z,12.97
2023-01-02T11:57:55.149Z,12.94
2023-01-02T12:00:22.545Z,12.90
2023-01-02T12:02:51.134Z,12.86
2023-01-02T12:05:25.817Z,12.84
2023-01-02T12:08:01.258Z,12.80
2023-01-02T12:10:32.716Z,12.75
2023-01-02T12:13:15.103Z,12.73
2023-01-02T12:16:10.104Z,12.77
2023-01-02T12:18:52.074Z,12.77
2023-01-02T12:21:26.284Z,12.73
2023-01-02T12:24:17.701Z,12.69
2023-01-02T12:26:53.804Z,12.63
2023-01-02T12:29:48.718Z,12.57
2023-01-02T12:32:45.179Z,12.52
2023-01-02T12:35:34.620Z,12.48
2023-01-02T12:38:07.500Z,12.41
2023-01-02T12:40:37.029Z,12.37
2023-01-02T12:43:22.202Z,12.34
2023-01-02T12:45:52.004Z,12.33
2023-01-02T12:48:44.650Z,12.35
2023-01-02T12:51:33.666Z,12.43
2023-01-02T12:54:31.469Z,12.48
2023-01-02T12:57:37.782Z,12.52
2023-01-02T13:00:21.382Z,12.54
2023-01-02T13:02:59.663Z,12.54
2023-01-02T13:05:29.393Z,12.53
2023-01-02T13:07:58.229Z,12.49
2023-01-02T13:12:36.703Z,12.38
2023-01-02T13:15:14.918Z,12.28
2023-01-02T13:18:05.079Z,12.24
2023-01-02T13:20:48.104Z,12.18
2023-01-02T13:23:33.651Z,12.11
2023-01-02T13:26:08.373Z,12.04
2023-01-02T13:28:42.756Z,11.99
2023-01-02T13:31:44.908Z,11.93
2023-01-02T13:33:58.408Z,11.87
2023-01-02T13:36:30.674Z,11.76
2023-01-02T13:39:03.193Z,11.66
2023-01-02T13:41:30.410Z,11.54
2023-01-02T13:44:00.221Z,11.41
2023-01-02T13:49:19.033Z,11.18
2023-01-02T13:51:45.834Z,11.11
2023-01-02T13:54:18.224Z,11.06
2023-01-02T13:57:18.654Z,11.00
2023-01-02T14:00:14.791Z,10.91
2023-01-02T14:02:44.030Z,10.81
2023-01-02T14:05:48.993Z,10.70
2023-01-02T14:08:32.335Z,10.57
2023-01-02T14:11:02.025Z,10.43
2023-01-02T14:13:49.012Z,10.30
2023-01-02T14:16:45.941Z,10.21
2023-01-02T14:19:12.627Z,10.14
2023-01-02T14:21:47.762Z,10.11
2023-01-02T14:24:45.222Z,10.07
2023-01-02T14:27:15.001Z,9.98
2023-01-02T14:29:50.640Z,9.89
2023-01-02T14:32:26.400Z,9.78
2023-01-02T14:34:54.914Z,9.66
2023-01-02T14:37:37.118Z,9.52
2023-01-02T14:40:23.734Z,9.35
2023-01-02T14:43:32.382Z,9.25
2023-01-02T14:46:05.086Z,9.16
2023-01-02T14:48:55.975Z,9.10
2023-01-02T14:51:33.320Z,9.02
2023-01-02T14:54:01.673Z,8.93
2023-01-02T14:56:31.750Z,8.83
2023-01-02T14:58:58.560Z,8.74
2023-01-02T15:01:42.586Z,8.65
2023-01-02T15:04:39.035Z,8.56
2023-01-02T15:07:10.734Z,8.49
2023-01-02T15:09:38.358Z,8.44
2023-01-02T15:12:42.777Z,8.36
2023-01-02T15:15:20.423Z,8.26
2023-01-02T15:17:47.701Z,8.14
2023-01-02T15:20:22.601Z,8.05
2023-01-02T15:22:51.984Z,7.98
2023-01-02T15:25:34.594Z,7.93
2023-01-02T15:28:01.827Z,7.90
2023-01-02T15:30:31.032Z,7.86
2023-01-02T15:32:57.904Z,7.79
2023-01-02T15:35:27.555Z,7.72
2023-01-02T15:37:54.282Z,7.65
2023-01-02T15:40:34.848Z,7.56
2023-01-02T15:43:23.400Z,7.45
2023-01-02T15:45:51.971Z,7.39
2023-01-02T15:48:20.585Z,7.37
2023-01-02T15:50:48.854Z,7.35
2023-01-02T15:53:26.981Z,7.31
2023-01-02T15:55:53.818Z,7.24
2023-01-02T15:58:20.580Z,7.16
2023-01-02T16:00:47.528Z,7.07
2023-01-02T16:04:01.479Z,6.97
2023-01-02T16:06:33.905Z,6.85
2023-01-02T16:09:02.057Z,6.79
2023-01-02T16:11:28.834Z,6.78
2023-01-02T16:14:19.249Z,6.79
2023-01-02T16:16:45.982Z,6.81
2023-01-02T16:19:34.626Z,6.80
2023-01-02T16:22:10.554Z,6.78
2023-01-02T16:24:45.468Z,6.72
2023-01-02T16:27:22.676Z,6.64
2023-01-02T16:29:49.337Z,6.58
2023-01-02T16:32:24.205Z,6.54
2023-01-02T16:35:20.304Z,6.49
2023-01-02T16:37:56.130Z,6.44
2023-01-02T16:41:00.298Z,6.39
2023-01-02T16:43:12.562Z,6.32
2023-01-02T16:45:39.362Z,6.23
2023-01-02T16:48:06.517Z,6.16
2023-01-02T16:50:33.294Z,6.12
2023-01-02T16:53:03.106Z,6.11
2023-01-02T16:55:29.950Z,6.10
2023-01-02T16:57:56.688Z,6.09
2023-01-02T17:00:23.358Z,6.06
2023-01-02T17:02:52.260Z,6.04
2023-01-02T17:05:39.641Z,5.99
2023-01-02T17:08:06.488Z,5.93
2023-01-02T17:10:33.325Z,5.86
2023-01-02T17:13:03.479Z,5.83
2023-01-02T17:15:32.324Z,5.79
2023-01-02T17:18:02.764Z,5.78
2023-01-02T17:20:29.605Z,5.76
2023-01-02T17:22:56.879Z,5.74
2023-01-02T17:25:24.109Z,5.69
2023-01-02T17:27:50.957Z,5.59
2023-01-02T17:30:20.049Z,5.49
2023-01-02T17:32:47.790Z,5.42
2023-01-02T17:35:14.942Z,5.39
2023-01-02T17:37:41.717Z,5.40
2023-01-02T17:40:09.941Z,5.42
2023-01-02T17:42:37.005Z,5.36
2023-01-02T17:45:04.078Z,5.33
2023-01-02T17:47:59.495Z,5.32
2023-01-02T17:50:17.743Z,5.31
2023-01-02T17:52:44.462Z,5.31
2023-01-02T17:55:11.205Z,5.31
2023-01-02T17:57:39.047Z,5.27
2023-01-02T18:00:07.730Z,5.25
2023-01-02T18:02:39.313Z,5.20
2023-01-02T18:05:06.435Z,5.15
2023-01-02T18:07:33.188Z,5.11
2023-01-02T18:10:08.134Z,5.06
2023-01-02T18:12:37.878Z,5.05
2023-01-02T18:15:13.112Z,5.07
2023-01-02T18:17:40.021Z,5.10
2023-01-02T18:20:13.552Z,5.11
2023-01-02T18:22:47.989Z,5.10
2023-01-02T18:25:30.035Z,5.06
2023-01-02T18:28:01.749Z,5.01
2023-01-02T18:30:28.662Z,4.95
2023-01-02T18:33:14.495Z,4.92
2023-01-02T18:35:58.503Z,4.95
2023-01-02T18:38:31.891Z,4.98
2023-01-02T18:40:58.827Z,4.98
2023-01-02T18:43:32.709Z,4.99
2023-01-02T18:46:09.553Z,4.98
2023-01-02T18:48:36.286Z,4.95
2023-01-02T18:51:03.006Z,4.91
2023-01-02T18:53:31.465Z,4.88
2023-01-02T18:56:16.457Z,4.88
2023-01-02T18:58:47.275Z,4.90
2023-01-02T19:01:20.247Z,4.94
2023-01-02T19:03:47.915Z,4.98
2023-01-02T19:06:22.364Z,5.01
2023-01-02T19:08:49.095Z,5.02
2023-01-02T19:11:40.471Z,5.01
2023-01-02T19:14:16.505Z,4.99
2023-01-02T19:16:43.418Z,5.00
2023-01-02T19:19:15.861Z,5.01
2023-01-02T19:21:42.996Z,5.04
2023-01-02T19:24:21.689Z,5.05
2023-01-02T19:26:49.579Z,5.05
2023-01-02T19:29:26.759Z,5.03
2023-01-02T19:32:05.103Z,4.99
2023-01-02T19:34:50.250Z,4.93
2023-01-02T19:37:30.151Z,4.93
2023-01-02T19:40:02.999Z,5.00
2023-01-02T19:42:31.930Z,5.05
2023-01-02T19:45:03.576Z,5.07
2023-01-02T19:47:31.853Z,5.09
2023-01-02T19:49:58.796Z,5.09
2023-01-02T19:52:26.531Z,5.04
2023-01-02T19:54:53.498Z,4.99
2023-01-02T19:57:20.769Z,4.97
2023-01-02T19:59:48.779Z,4.96
2023-01-02T20:02:20.902Z,4.95
2023-01-02T20:04:50.185Z,4.93
2023-01-02T20:07:16.929Z,4.90
2023-01-02T20:09:43.620Z,4.86
2023-01-02T20:12:29.124Z,4.79
2023-01-02T20:15:10.541Z,4.70
2023-01-02T20:17:37.743Z,4.64
2023-01-02T20:20:05.798Z,4.61
2023-01-02T20:22:32.478Z,4.61
2023-01-02T20:24:59.213Z,4.61
2023-01-02T20:27:26.146Z,4.62
2023-01-02T20:29:55.292Z,4.60
2023-01-02T20:32:22.510Z,4.57
2023-01-02T20:34:49.415Z,4.53
2023-01-02T20:37:21.025Z,4.50
2023-01-02T20:39:51.644Z,4.48
2023-01-02T20:42:18.602Z,4.51
2023-01-02T20:44:45.770Z,4.54
2023-01-02T20:47:12.570Z,4.55
2023-01-02T20:49:39.922Z,4.54
2023-01-02T20:52:07.154Z,4.53
2023-01-02T20:54:33.980Z,4.48
2023-01-02T20:57:00.647Z,4.42
2023-01-02T20:59:27.399Z,4.38
2023-01-02T21:01:54.388Z,4.38
2023-01-02T21:04:27.833Z,4.38
2023-01-02T21:06:57.504Z,4.40
2023-01-02T21:09:24.159Z,4.41
2023-01-02T21:11:50.819Z,4.39
2023-01-02T21:14:17.491Z,4.36
2023-01-02T21:16:44.126Z,4.31
2023-01-02T21:19:10.831Z,4.24
2023-01-02T21:21:37.585Z,4.17
2023-01-02T21:24:04.480Z,4.14
2023-01-02T21:26:31.165Z,4.14
2023-01-02T21:28:57.880Z,4.15
2023-01-02T21:31:24.607Z,4.17
2023-01-02T21:33:51.347Z,4.16
2023-01-02T21:36:18.760Z,4.15
2023-01-02T21:38:45.416Z,4.12
2023-01-02T21:41:30.599Z,4.09
2023-01-02T21:43:57.389Z,4.08
2023-01-02T21:46:24.114Z,4.09
2023-01-02T21:48:50.964Z,4.09
2023-01-02T21:51:17.716Z,4.07
2023-01-02T21:53:44.440Z,4.06
2023-01-02T21:56:11.290Z,4.03
2023-01-02T21:58:37.964Z,4.01
2023-01-02T22:01:04.803Z,3.98
2023-01-02T22:03:31.635Z,3.93
2023-01-02T22:05:58.966Z,3.88
2023-01-02T22:08:25.622Z,3.85
2023-01-02T22:11:12.380Z,3.87
2023-01-02T22:13:39.005Z,3.87
2023-01-02T22:16:05.821Z,3.86
2023-01-02T22:18:37.964Z,3.84
2023-01-02T22:21:05.104Z,3.82
2023-01-02T22:23:31.945Z,3.78
2023-01-02T22:25:58.707Z,3.76
2023-01-02T22:28:25.634Z,3.76
2023-01-02T22:30:52.608Z,3.77
2023-01-02T22:33:19.289Z,3.82
2023-01-02T22:35:45.924Z,3.85
2023-01-02T22:38:12.584Z,3.86
2023-01-02T22:40:39.211Z,3.87
2023-01-02T22:43:06.446Z,3.86
2023-01-02T22:45:39.466Z,3.82
2023-01-02T22:48:07.736Z,3.76
2023-01-02T22:50:42.454Z,3.68
2023-01-02T22:53:18.331Z,3.65
2023-01-02T22:55:45.003Z,3.61
2023-01-02T22:58:12.312Z,3.59
2023-01-02T23:00:39.011Z,3.56
2023-01-02T23:03:08.833Z,3.53
2023-01-02T23:05:35.531Z,3.50
2023-01-02T23:08:02.268Z,3.47
2023-01-02T23:10:28.981Z,3.45
2023-01-02T23:12:55.701Z,3.48
2023-01-02T23:15:22.475Z,3.51
2023-01-02T23:18:08.047Z,3.52
2023-01-02T23:20:34.783Z,3.51
2023-01-02T23:23:01.529Z,3.49
2023-01-02T23:25:28.360Z,3.46
2023-01-02T23:27:55.005Z,3.42
2023-01-02T23:30:21.662Z,3.40
2023-01-02T23:32:48.375Z,3.41
2023-01-02T23:35:15.183Z,3.46
2023-01-02T23:37:41.969Z,3.51
2023-01-02T23:40:09.291Z,3.53
2023-01-02T23:42:35.945Z,3.54
2023-01-02T23:45:02.598Z,3.54
2023-01-02T23:47:29.339Z,3.52
2023-01-02T23:49:56.073Z,3.46
2023-01-02T23:52:22.799Z,3.40
2023-01-02T23:54:49.452Z,3.34
2023-01-02T23:57:16.202Z,3.29
2023-01-02T23:59:42.936Z,3.28
